sensor_id;sensor_type;location;lat;lon;timestamp;pressure;altitude;pressure_sealevel;temperature
69415;BMP280;56608;43.530;-5.652;2023-06-10T00:00:27;100870.50;;;20.98
69415;BMP280;56608;43.530;-5.652;2023-06-10T00:01:27;100871.00;;;20.96
69415;BMP280;56608;43.530;-5.652;2023-06-10T00:02:28;100877.16;;;21.02
69415;BMP280;56608;43.530;-5.652;2023-06-10T00:03:28;100873.97;;;21.04
69415;BMP280;56608;43.530;-5.652;2023-06-10T00:04:29;100874.97;;;21.01
69415;BMP280;56608;43.530;-5.652;2023-06-10T00:05:30;100874.97;;;20.95
69415;BMP280;56608;43.530;-5.652;2023-06-10T00:06:31;100876.22;;;20.94
69415;BMP280;56608;43.530;-5.652;2023-06-10T00:07:35;100883.91;;;20.96
69415;BMP280;56608;43.530;-5.652;2023-06-10T00:08:39;100872.72;;;20.99
69415;BMP280;56608;43.530;-5.652;2023-06-10T00:09:41;100874.22;;;21.00
69415;BMP280;56608;43.530;-5.652;2023-06-10T00:10:41;100874.22;;;21.00
69415;BMP280;56608;43.530;-5.652;2023-06-10T00:11:42;100873.47;;;21.00
69415;BMP280;56608;43.530;-5.652;2023-06-10T00:12:42;100878.94;;;21.00
69415;BMP280;56608;43.530;-5.652;2023-06-10T00:13:43;100872.72;;;20.99
69415;BMP280;56608;43.530;-5.652;2023-06-10T00:14:44;100873.97;;;20.98
69415;BMP280;56608;43.530;-5.652;2023-06-10T00:15:44;100879.69;;;21.00
69415;BMP280;56608;43.530;-5.652;2023-06-10T00:16:44;100873.00;;;20.96
69415;BMP280;56608;43.530;-5.652;2023-06-10T00:17:45;100877.94;;;21.03
69415;BMP280;56608;43.530;-5.652;2023-06-10T00:18:46;100882.84;;;21.10
69415;BMP280;56608;43.530;-5.652;2023-06-10T00:19:47;100875.88;;;21.15
69415;BMP280;56608;43.530;-5.652;2023-06-10T00:20:47;100878.34;;;21.18
69415;BMP280;56608;43.530;-5.652;2023-06-10T00:21:48;100877.34;;;21.21
69415;BMP280;56608;43.530;-5.652;2023-06-10T00:22:51;100874.34;;;21.25
69415;BMP280;56608;43.530;-5.652;2023-06-10T00:23:52;100873.81;;;21.26
69415;BMP280;56608;43.530;-5.652;2023-06-10T00:24:52;100868.88;;;21.25
69415;BMP280;56608;43.530;-5.652;2023-06-10T00:25:52;100876.31;;;21.24
69415;BMP280;56608;43.530;-5.652;2023-06-10T00:26:53;100863.91;;;21.23
69415;BMP280;56608;43.530;-5.652;2023-06-10T00:27:53;100876.31;;;21.24
69415;BMP280;56608;43.530;-5.652;2023-06-10T00:28:53;100865.59;;;21.26
69415;BMP280;56608;43.530;-5.652;2023-06-10T00:29:54;100865.59;;;21.26
69415;BMP280;56608;43.530;-5.652;2023-06-10T00:30:54;100864.66;;;21.24
69415;BMP280;56608;43.530;-5.652;2023-06-10T00:31:54;100859.94;;;21.24
69415;BMP280;56608;43.530;-5.652;2023-06-10T00:32:57;100860.66;;;21.25
69415;BMP280;56608;43.530;-5.652;2023-06-10T00:33:57;100862.88;;;21.26
69415;BMP280;56608;43.530;-5.652;2023-06-10T00:34:58;100858.69;;;21.25
69415;BMP280;56608;43.530;-5.652;2023-06-10T00:35:59;100860.13;;;21.26
69415;BMP280;56608;43.530;-5.652;2023-06-10T00:36:59;100863.16;;;21.23
69415;BMP280;56608;43.530;-5.652;2023-06-10T00:38:00;100866.41;;;21.21
69415;BMP280;56608;43.530;-5.652;2023-06-10T00:39:00;100862.94;;;21.21
69415;BMP280;56608;43.530;-5.652;2023-06-10T00:40:01;100863.97;;;21.18
69415;BMP280;56608;43.530;-5.652;2023-06-10T00:41:01;100856.47;;;21.18
69415;BMP280;56608;43.530;-5.652;2023-06-10T00:42:02;100865.69;;;21.15
69415;BMP280;56608;43.530;-5.652;2023-06-10T00:43:07;100866.91;;;21.20
69415;BMP280;56608;43.530;-5.652;2023-06-10T00:44:07;100858.72;;;21.20
69415;BMP280;56608;43.530;-5.652;2023-06-10T00:45:07;100866.41;;;21.21
69415;BMP280;56608;43.530;-5.652;2023-06-10T00:46:08;100866.69;;;21.18
69415;BMP280;56608;43.530;-5.652;2023-06-10T00:47:09;100866.44;;;21.16
69415;BMP280;56608;43.530;-5.652;2023-06-10T00:48:09;100866.44;;;21.16
69415;BMP280;56608;43.530;-5.652;2023-06-10T00:49:10;100864.94;;;21.15
69415;BMP280;56608;43.530;-5.652;2023-06-10T00:50:10;100866.47;;;21.10
69415;BMP280;56608;43.530;-5.652;2023-06-10T00:51:11;100862.78;;;21.08
69415;BMP280;56608;43.530;-5.652;2023-06-10T00:52:12;100865.50;;;21.08
69415;BMP280;56608;43.530;-5.652;2023-06-10T00:53:12;100859.56;;;21.03
69415;BMP280;56608;43.530;-5.652;2023-06-10T00:54:13;100869.25;;;21.04
69415;BMP280;56608;43.530;-5.652;2023-06-10T00:55:15;100859.81;;;21.06
69415;BMP280;56608;43.530;-5.652;2023-06-10T00:56:16;100860.56;;;21.00
69415;BMP280;56608;43.530;-5.652;2023-06-10T00:57:17;100861.78;;;20.99
69415;BMP280;56608;43.530;-5.652;2023-06-10T00:58:17;100861.53;;;20.97
69415;BMP280;56608;43.530;-5.652;2023-06-10T00:59:18;100866.78;;;20.95
69415;BMP280;56608;43.530;-5.652;2023-06-10T01:00:18;100855.13;;;20.95
69415;BMP280;56608;43.530;-5.652;2023-06-10T01:01:19;100865.53;;;20.96
69415;BMP280;56608;43.530;-5.652;2023-06-10T01:02:20;100858.41;;;20.88
69415;BMP280;56608;43.530;-5.652;2023-06-10T01:03:20;100864.91;;;20.79
69415;BMP280;56608;43.530;-5.652;2023-06-10T01:04:20;100855.41;;;20.86
69415;BMP280;56608;43.530;-5.652;2023-06-10T01:05:22;100850.94;;;20.88
69415;BMP280;56608;43.530;-5.652;2023-06-10T01:10:10;100856.97;;;20.70
69415;BMP280;56608;43.530;-5.652;2023-06-10T01:11:19;100844.28;;;20.73
69415;BMP280;56608;43.530;-5.652;2023-06-10T01:12:26;100849.75;;;20.73
69415;BMP280;56608;43.530;-5.652;2023-06-10T01:13:29;100854.50;;;20.67
69415;BMP280;56608;43.530;-5.652;2023-06-10T01:14:29;100845.28;;;20.70
69415;BMP280;56608;43.530;-5.652;2023-06-10T01:15:31;100846.03;;;20.70
69415;BMP280;56608;43.530;-5.652;2023-06-10T01:16:32;100847.78;;;20.79
69415;BMP280;56608;43.530;-5.652;2023-06-10T01:17:32;100844.75;;;20.82
69415;BMP280;56608;43.530;-5.652;2023-06-10T01:18:33;100840.53;;;20.81
69415;BMP280;56608;43.530;-5.652;2023-06-10T01:19:33;100843.53;;;20.83
69415;BMP280;56608;43.530;-5.652;2023-06-10T01:20:34;100840.03;;;20.88
69415;BMP280;56608;43.530;-5.652;2023-06-10T01:21:34;100848.50;;;20.85
69415;BMP280;56608;43.530;-5.652;2023-06-10T01:22:37;100844.53;;;20.80
69415;BMP280;56608;43.530;-5.652;2023-06-10T01:23:37;100835.81;;;20.82
69415;BMP280;56608;43.530;-5.652;2023-06-10T01:24:38;100844.53;;;20.80
69415;BMP280;56608;43.530;-5.652;2023-06-10T01:25:41;100844.28;;;20.73
69415;BMP280;56608;43.530;-5.652;2023-06-10T01:26:44;100840.59;;;20.70
69415;BMP280;56608;43.530;-5.652;2023-06-10T01:27:45;100849.03;;;20.72
69415;BMP280;56608;43.530;-5.652;2023-06-10T01:28:51;100844.81;;;20.71
69415;BMP280;56608;43.530;-5.652;2023-06-10T01:29:55;100841.34;;;20.71
69415;BMP280;56608;43.530;-5.652;2023-06-10T01:32:15;100844.28;;;20.73
69415;BMP280;56608;43.530;-5.652;2023-06-10T01:33:17;100849.75;;;20.73
69415;BMP280;56608;43.530;-5.652;2023-06-10T01:34:18;100842.06;;;20.71
69415;BMP280;56608;43.530;-5.652;2023-06-10T01:35:19;100847.75;;;20.73
69415;BMP280;56608;43.530;-5.652;2023-06-10T01:36:21;100844.81;;;20.71
69415;BMP280;56608;43.530;-5.652;2023-06-10T01:37:22;100840.66;;;20.59
69415;BMP280;56608;43.530;-5.652;2023-06-10T01:38:25;100854.78;;;20.63
69415;BMP280;56608;43.530;-5.652;2023-06-10T01:39:25;100849.53;;;20.65
69415;BMP280;56608;43.530;-5.652;2023-06-10T01:40:26;100851.50;;;20.70
69415;BMP280;56608;43.530;-5.652;2023-06-10T01:41:26;100854.22;;;20.76
69415;BMP280;56608;43.530;-5.652;2023-06-10T01:42:27;100854.97;;;20.76
69415;BMP280;56608;43.530;-5.652;2023-06-10T01:43:28;100858.69;;;20.73
69415;BMP280;56608;43.530;-5.652;2023-06-10T01:44:28;100849.28;;;20.69
69415;BMP280;56608;43.530;-5.652;2023-06-10T01:45:28;100854.72;;;20.69
69415;BMP280;56608;43.530;-5.652;2023-06-10T01:46:29;100859.00;;;20.64
69415;BMP280;56608;43.530;-5.652;2023-06-10T01:47:29;100856.28;;;20.64
69415;BMP280;56608;43.530;-5.652;2023-06-10T01:48:30;100853.00;;;20.71
69415;BMP280;56608;43.530;-5.652;2023-06-10T01:49:30;100854.72;;;20.69
69415;BMP280;56608;43.530;-5.652;2023-06-10T01:50:30;100860.47;;;20.65
69415;BMP280;56608;43.530;-5.652;2023-06-10T01:51:31;100856.28;;;20.64
69415;BMP280;56608;43.530;-5.652;2023-06-10T01:52:31;100852.03;;;20.63
69415;BMP280;56608;43.530;-5.652;2023-06-10T01:53:32;100848.56;;;20.62
69415;BMP280;56608;43.530;-5.652;2023-06-10T01:54:32;100846.34;;;20.61
69415;BMP280;56608;43.530;-5.652;2023-06-10T01:55:34;100845.38;;;20.58
69415;BMP280;56608;43.530;-5.652;2023-06-10T01:56:34;100849.34;;;20.57
69415;BMP280;56608;43.530;-5.652;2023-06-10T01:57:35;100851.78;;;20.61
69415;BMP280;56608;43.530;-5.652;2023-06-10T01:58:35;100846.81;;;20.65
69415;BMP280;56608;43.530;-5.652;2023-06-10T01:59:35;100856.00;;;20.62
69415;BMP280;56608;43.530;-5.652;2023-06-10T02:00:37;100856.00;;;20.62
69415;BMP280;56608;43.530;-5.652;2023-06-10T02:01:38;100848.03;;;20.70
69415;BMP280;56608;43.530;-5.652;2023-06-10T02:02:38;100854.72;;;20.74
69415;BMP280;56608;43.530;-5.652;2023-06-10T02:03:38;100849.25;;;20.74
69415;BMP280;56608;43.530;-5.652;2023-06-10T02:04:38;100850.00;;;20.75
69415;BMP280;56608;43.530;-5.652;2023-06-10T02:05:39;100850.75;;;20.81
69415;BMP280;56608;43.530;-5.652;2023-06-10T02:06:39;100851.47;;;20.81
69415;BMP280;56608;43.530;-5.652;2023-06-10T02:07:40;100848.25;;;20.77
69415;BMP280;56608;43.530;-5.652;2023-06-10T02:08:40;100855.19;;;20.73
69415;BMP280;56608;43.530;-5.652;2023-06-10T02:09:41;100848.78;;;20.70
69415;BMP280;56608;43.530;-5.652;2023-06-10T02:10:41;100846.03;;;20.70
69415;BMP280;56608;43.530;-5.652;2023-06-10T02:11:41;100862.19;;;20.68
69415;BMP280;56608;43.530;-5.652;2023-06-10T02:12:41;100856.97;;;20.70
69415;BMP280;56608;43.530;-5.652;2023-06-10T02:13:42;100857.97;;;20.67
69415;BMP280;56608;43.530;-5.652;2023-06-10T02:14:42;100853.78;;;20.60
69415;BMP280;56608;43.530;-5.652;2023-06-10T02:15:42;100856.28;;;20.64
69415;BMP280;56608;43.530;-5.652;2023-06-10T02:16:43;100859.50;;;20.57
69415;BMP280;56608;43.530;-5.652;2023-06-10T02:17:45;100854.03;;;20.57
69415;BMP280;56608;43.530;-5.652;2023-06-10T02:18:45;100854.31;;;20.53
69415;BMP280;56608;43.530;-5.652;2023-06-10T02:19:46;100853.81;;;20.49
69415;BMP280;56608;43.530;-5.652;2023-06-10T02:20:52;100854.56;;;20.50
69415;BMP280;56608;43.530;-5.652;2023-06-10T02:21:52;100851.56;;;20.48
69415;BMP280;56608;43.530;-5.652;2023-06-10T02:22:53;100854.06;;;20.46
69415;BMP280;56608;43.530;-5.652;2023-06-10T02:23:53;100861.50;;;20.45
69415;BMP280;56608;43.530;-5.652;2023-06-10T02:24:54;100855.09;;;20.43
69415;BMP280;56608;43.530;-5.652;2023-06-10T02:25:55;100852.09;;;20.41
69415;BMP280;56608;43.530;-5.652;2023-06-10T02:26:55;100857.56;;;20.41
69415;BMP280;56608;43.530;-5.652;2023-06-10T02:27:55;100858.78;;;20.45
69415;BMP280;56608;43.530;-5.652;2023-06-10T02:28:56;100859.03;;;20.47
69415;BMP280;56608;43.530;-5.652;2023-06-10T02:29:56;100857.28;;;20.50
69415;BMP280;56608;43.530;-5.652;2023-06-10T02:30:57;100857.28;;;20.50
69415;BMP280;56608;43.530;-5.652;2023-06-10T02:31:57;100859.53;;;20.46
69415;BMP280;56608;43.530;-5.652;2023-06-10T02:32:57;100855.84;;;20.38
69415;BMP280;56608;43.530;-5.652;2023-06-10T02:33:59;100862.28;;;20.40
69415;BMP280;56608;43.530;-5.652;2023-06-10T02:34:59;100860.56;;;20.37
69415;BMP280;56608;43.530;-5.652;2023-06-10T02:36:00;100861.03;;;20.36
69415;BMP280;56608;43.530;-5.652;2023-06-10T02:37:00;100859.31;;;20.38
69415;BMP280;56608;43.530;-5.652;2023-06-10T02:38:01;100871.22;;;20.35
69415;BMP280;56608;43.530;-5.652;2023-06-10T02:39:01;100869.22;;;20.36
69415;BMP280;56608;43.530;-5.652;2023-06-10T02:40:03;100870.97;;;20.39
69415;BMP280;56608;43.530;-5.652;2023-06-10T02:41:03;100866.72;;;20.43
69415;BMP280;56608;43.530;-5.652;2023-06-10T02:42:04;100874.16;;;20.48
69415;BMP280;56608;43.530;-5.652;2023-06-10T02:43:05;100871.44;;;20.54
69415;BMP280;56608;43.530;-5.652;2023-06-10T02:44:05;100879.88;;;20.56
69415;BMP280;56608;43.530;-5.652;2023-06-10T02:45:06;100885.81;;;20.54
69415;BMP280;56608;43.530;-5.652;2023-06-10T02:46:07;100880.09;;;20.58
69415;BMP280;56608;43.530;-5.652;2023-06-10T02:47:07;100871.16;;;20.57
69415;BMP280;56608;43.530;-5.652;2023-06-10T02:48:07;100887.53;;;20.57
69415;BMP280;56608;43.530;-5.652;2023-06-10T02:49:07;100887.53;;;20.57
69415;BMP280;56608;43.530;-5.652;2023-06-10T02:50:08;100885.81;;;20.49
69415;BMP280;56608;43.530;-5.652;2023-06-10T02:51:08;100881.37;;;20.46
69415;BMP280;56608;43.530;-5.652;2023-06-10T02:52:09;100884.84;;;20.41
69415;BMP280;56608;43.530;-5.652;2023-06-10T02:53:11;100884.84;;;20.35
69415;BMP280;56608;43.530;-5.652;2023-06-10T02:54:12;100882.38;;;20.32
69415;BMP280;56608;43.530;-5.652;2023-06-10T02:55:12;100882.88;;;20.25
69415;BMP280;56608;43.530;-5.652;2023-06-10T02:56:13;100886.62;;;20.27
69415;BMP280;56608;43.530;-5.652;2023-06-10T02:57:14;100889.13;;;20.25
69415;BMP280;56608;43.530;-5.652;2023-06-10T02:58:14;100887.13;;;20.26
69415;BMP280;56608;43.530;-5.652;2023-06-10T02:59:15;100883.66;;;20.25
69415;BMP280;56608;43.530;-5.652;2023-06-10T03:00:15;100887.84;;;20.32
69415;BMP280;56608;43.530;-5.652;2023-06-10T03:01:16;100891.56;;;20.34
69415;BMP280;56608;43.530;-5.652;2023-06-10T03:02:16;100890.31;;;20.41
69415;BMP280;56608;43.530;-5.652;2023-06-10T03:03:16;100889.81;;;20.31
69415;BMP280;56608;43.530;-5.652;2023-06-10T03:04:17;100892.06;;;20.33
69415;BMP280;56608;43.530;-5.652;2023-06-10T03:05:18;100888.81;;;20.40
69415;BMP280;56608;43.530;-5.652;2023-06-10T03:06:18;100893.28;;;20.43
69415;BMP280;56608;43.530;-5.652;2023-06-10T03:07:18;100890.78;;;20.45
69415;BMP280;56608;43.530;-5.652;2023-06-10T03:08:20;100899.22;;;20.47
69415;BMP280;56608;43.530;-5.652;2023-06-10T03:09:21;100899.22;;;20.47
69415;BMP280;56608;43.530;-5.652;2023-06-10T03:10:21;100897.47;;;20.49
69415;BMP280;56608;43.530;-5.652;2023-06-10T03:11:21;100902.19;;;20.49
69415;BMP280;56608;43.530;-5.652;2023-06-10T03:12:22;100903.19;;;20.46
69415;BMP280;56608;43.530;-5.652;2023-06-10T03:13:23;100904.19;;;20.43
69415;BMP280;56608;43.530;-5.652;2023-06-10T03:14:25;100902.72;;;20.36
69415;BMP280;56608;43.530;-5.652;2023-06-10T03:15:25;100907.44;;;20.36
69415;BMP280;56608;43.530;-5.652;2023-06-10T03:16:25;100907.94;;;20.34
69415;BMP280;56608;43.530;-5.652;2023-06-10T03:17:27;100903.25;;;20.35
69415;BMP280;56608;43.530;-5.652;2023-06-10T03:18:27;100906.19;;;20.37
69415;BMP280;56608;43.530;-5.652;2023-06-10T03:19:28;100908.19;;;20.36
69415;BMP280;56608;43.530;-5.652;2023-06-10T03:20:28;100906.19;;;20.37
69415;BMP280;56608;43.530;-5.652;2023-06-10T03:21:30;100907.19;;;20.34
69415;BMP280;56608;43.530;-5.652;2023-06-10T03:22:30;100908.69;;;20.35
69415;BMP280;56608;43.530;-5.652;2023-06-10T03:23:30;100910.91;;;20.31
69415;BMP280;56608;43.530;-5.652;2023-06-10T03:24:31;100905.72;;;20.33
69415;BMP280;56608;43.530;-5.652;2023-06-10T03:25:31;100912.88;;;20.36
69415;BMP280;56608;43.530;-5.652;2023-06-10T03:26:31;100908.94;;;20.37
69415;BMP280;56608;43.530;-5.652;2023-06-10T03:27:32;100909.19;;;20.39
69415;BMP280;56608;43.530;-5.652;2023-06-10T03:28:32;100915.37;;;20.34
69415;BMP280;56608;43.530;-5.652;2023-06-10T03:29:33;100915.13;;;20.32
69415;BMP280;56608;43.530;-5.652;2023-06-10T03:30:33;100916.38;;;20.31
69415;BMP280;56608;43.530;-5.652;2023-06-10T03:31:33;100913.41;;;20.29
69415;BMP280;56608;43.530;-5.652;2023-06-10T03:32:35;100909.19;;;20.28
69415;BMP280;56608;43.530;-5.652;2023-06-10T03:33:36;100918.59;;;20.27
69415;BMP280;56608;43.530;-5.652;2023-06-10T03:34:37;100915.16;;;20.26
69415;BMP280;56608;43.530;-5.652;2023-06-10T03:35:38;100922.34;;;20.29
69415;BMP280;56608;43.530;-5.652;2023-06-10T03:36:38;100915.63;;;20.25
69415;BMP280;56608;43.530;-5.652;2023-06-10T03:37:42;100925.03;;;20.24
69415;BMP280;56608;43.530;-5.652;2023-06-10T03:38:43;100925.03;;;20.24
69415;BMP280;56608;43.530;-5.652;2023-06-10T03:39:43;100922.09;;;20.27
69415;BMP280;56608;43.530;-5.652;2023-06-10T03:40:43;100927.28;;;20.31
69415;BMP280;56608;43.530;-5.652;2023-06-10T03:41:43;100929.03;;;20.34
69415;BMP280;56608;43.530;-5.652;2023-06-10T03:42:44;100935.97;;;20.35
69415;BMP280;56608;43.530;-5.652;2023-06-10T03:43:44;100927.28;;;20.36
69415;BMP280;56608;43.530;-5.652;2023-06-10T03:44:45;100933.25;;;20.35
69415;BMP280;56608;43.530;-5.652;2023-06-10T03:45:45;100935.22;;;20.34
69415;BMP280;56608;43.530;-5.652;2023-06-10T03:46:46;100934.97;;;20.38
69415;BMP280;56608;43.530;-5.652;2023-06-10T03:47:47;100935.47;;;20.42
69415;BMP280;56608;43.530;-5.652;2023-06-10T03:48:48;100932.22;;;20.43
69415;BMP280;56608;43.530;-5.652;2023-06-10T03:49:48;100935.69;;;20.44
69415;BMP280;56608;43.530;-5.652;2023-06-10T03:50:48;100937.19;;;20.39
69415;BMP280;56608;43.530;-5.652;2023-06-10T03:51:50;100937.19;;;20.39
69415;BMP280;56608;43.530;-5.652;2023-06-10T03:52:51;100932.00;;;20.36
69415;BMP280;56608;43.530;-5.652;2023-06-10T03:53:51;100942.69;;;20.34
69415;BMP280;56608;43.530;-5.652;2023-06-10T03:54:52;100947.88;;;20.37
69415;BMP280;56608;43.530;-5.652;2023-06-10T03:55:52;100943.91;;;20.38
69415;BMP280;56608;43.530;-5.652;2023-06-10T03:56:52;100944.88;;;20.41
69415;BMP280;56608;43.530;-5.652;2023-06-10T03:57:52;100946.13;;;20.40
69415;BMP280;56608;43.530;-5.652;2023-06-10T03:58:53;100944.16;;;20.35
69415;BMP280;56608;43.530;-5.652;2023-06-10T03:59:53;100945.66;;;20.30
69415;BMP280;56608;43.530;-5.652;2023-06-10T04:00:54;100948.63;;;20.32
69415;BMP280;56608;43.530;-5.652;2023-06-10T04:01:55;100949.37;;;20.33
69415;BMP280;56608;43.530;-5.652;2023-06-10T04:02:55;100951.13;;;20.30
69415;BMP280;56608;43.530;-5.652;2023-06-10T04:03:58;100949.09;;;20.31
69415;BMP280;56608;43.530;-5.652;2023-06-10T04:04:58;100948.87;;;20.29
69415;BMP280;56608;43.530;-5.652;2023-06-10T04:05:58;100949.84;;;20.31
69415;BMP280;56608;43.530;-5.652;2023-06-10T04:06:59;100943.91;;;20.33
69415;BMP280;56608;43.530;-5.652;2023-06-10T04:07:59;100939.44;;;20.35
69415;BMP280;56608;43.530;-5.652;2023-06-10T04:09:01;100950.59;;;20.32
69415;BMP280;56608;43.530;-5.652;2023-06-10T04:10:03;100954.06;;;20.32
69415;BMP280;56608;43.530;-5.652;2023-06-10T04:11:03;100957.81;;;20.35
69415;BMP280;56608;43.530;-5.652;2023-06-10T04:12:04;100953.31;;;20.37
69415;BMP280;56608;43.530;-5.652;2023-06-10T04:13:06;100957.06;;;20.34
69415;BMP280;56608;43.530;-5.652;2023-06-10T04:14:07;100954.56;;;20.36
69415;BMP280;56608;43.530;-5.652;2023-06-10T04:15:08;100955.56;;;20.39
69415;BMP280;56608;43.530;-5.652;2023-06-10T04:16:08;100954.31;;;20.40
69415;BMP280;56608;43.530;-5.652;2023-06-10T04:17:08;100952.56;;;20.37
69415;BMP280;56608;43.530;-5.652;2023-06-10T04:18:09;100951.56;;;20.40
69415;BMP280;56608;43.530;-5.652;2023-06-10T04:19:09;100951.09;;;20.41
69415;BMP280;56608;43.530;-5.652;2023-06-10T04:20:10;100953.56;;;20.45
69415;BMP280;56608;43.530;-5.652;2023-06-10T04:21:10;100959.75;;;20.45
69415;BMP280;56608;43.530;-5.652;2023-06-10T04:22:11;100960.25;;;20.44
69415;BMP280;56608;43.530;-5.652;2023-06-10T04:23:11;100957.53;;;20.44
69415;BMP280;56608;43.530;-5.652;2023-06-10T04:24:11;100962.75;;;20.42
69415;BMP280;56608;43.530;-5.652;2023-06-10T04:25:12;100961.50;;;20.43
69415;BMP280;56608;43.530;-5.652;2023-06-10T04:26:12;100957.03;;;20.40
69415;BMP280;56608;43.530;-5.652;2023-06-10T04:27:13;100959.00;;;20.39
69415;BMP280;56608;43.530;-5.652;2023-06-10T04:28:13;100962.50;;;20.40
69415;BMP280;56608;43.530;-5.652;2023-06-10T04:29:13;100956.81;;;20.38
69415;BMP280;56608;43.530;-5.652;2023-06-10T04:30:14;100957.03;;;20.40
69415;BMP280;56608;43.530;-5.652;2023-06-10T04:31:15;100959.75;;;20.40
69415;BMP280;56608;43.530;-5.652;2023-06-10T04:32:16;100961.50;;;20.37
69415;BMP280;56608;43.530;-5.652;2023-06-10T04:33:16;100962.75;;;20.42
69415;BMP280;56608;43.530;-5.652;2023-06-10T04:34:17;100953.56;;;20.39
69415;BMP280;56608;43.530;-5.652;2023-06-10T04:35:17;100963.00;;;20.38
69415;BMP280;56608;43.530;-5.652;2023-06-10T04:36:18;100963.75;;;20.39
69415;BMP280;56608;43.530;-5.652;2023-06-10T04:37:18;100959.53;;;20.38
69415;BMP280;56608;43.530;-5.652;2023-06-10T04:38:18;100971.69;;;20.37
69415;BMP280;56608;43.530;-5.652;2023-06-10T04:39:19;100966.47;;;20.39
69415;BMP280;56608;43.530;-5.652;2023-06-10T04:40:19;100970.44;;;20.38
69415;BMP280;56608;43.530;-5.652;2023-06-10T04:41:20;100973.19;;;20.38
69415;BMP280;56608;43.530;-5.652;2023-06-10T04:42:20;100967.72;;;20.32
69415;BMP280;56608;43.530;-5.652;2023-06-10T04:43:21;100971.44;;;20.29
69415;BMP280;56608;43.530;-5.652;2023-06-10T04:44:21;100970.44;;;20.32
69415;BMP280;56608;43.530;-5.652;2023-06-10T04:45:22;100978.41;;;20.30
69415;BMP280;56608;43.530;-5.652;2023-06-10T04:46:22;100970.19;;;20.36
69415;BMP280;56608;43.530;-5.652;2023-06-10T04:47:23;100976.13;;;20.40
69415;BMP280;56608;43.530;-5.652;2023-06-10T04:48:23;100977.62;;;20.41
69415;BMP280;56608;43.530;-5.652;2023-06-10T04:49:26;100977.41;;;20.39
69415;BMP280;56608;43.530;-5.652;2023-06-10T04:50:27;100979.13;;;20.42
69415;BMP280;56608;43.530;-5.652;2023-06-10T04:51:27;100979.13;;;20.42
69415;BMP280;56608;43.530;-5.652;2023-06-10T04:52:27;100982.09;;;20.44
69415;BMP280;56608;43.530;-5.652;2023-06-10T04:53:28;100976.63;;;20.44
69415;BMP280;56608;43.530;-5.652;2023-06-10T04:54:28;100980.84;;;20.45
69415;BMP280;56608;43.530;-5.652;2023-06-10T04:55:29;100984.81;;;20.44
69415;BMP280;56608;43.530;-5.652;2023-06-10T04:56:32;100983.56;;;20.45
69415;BMP280;56608;43.530;-5.652;2023-06-10T04:57:33;100985.31;;;20.42
69415;BMP280;56608;43.530;-5.652;2023-06-10T04:58:33;100985.06;;;20.46
69415;BMP280;56608;43.530;-5.652;2023-06-10T04:59:33;100975.87;;;20.43
69415;BMP280;56608;43.530;-5.652;2023-06-10T05:00:37;100987.53;;;20.44
69415;BMP280;56608;43.530;-5.652;2023-06-10T05:01:37;100983.09;;;20.41
69415;BMP280;56608;43.530;-5.652;2023-06-10T05:02:38;100987.31;;;20.42
69415;BMP280;56608;43.530;-5.652;2023-06-10T05:03:38;100983.56;;;20.45
69415;BMP280;56608;43.530;-5.652;2023-06-10T05:04:38;100987.78;;;20.46
69415;BMP280;56608;43.530;-5.652;2023-06-10T05:05:39;100990.78;;;20.42
69415;BMP280;56608;43.530;-5.652;2023-06-10T05:06:39;100986.31;;;20.45
69415;BMP280;56608;43.530;-5.652;2023-06-10T05:07:39;100980.63;;;20.43
69415;BMP280;56608;43.530;-5.652;2023-06-10T05:08:40;100994.75;;;20.47
69415;BMP280;56608;43.530;-5.652;2023-06-10T05:09:40;100988.28;;;20.50
69415;BMP280;56608;43.530;-5.652;2023-06-10T05:10:40;100991.00;;;20.50
69415;BMP280;56608;43.530;-5.652;2023-06-10T05:11:41;100983.31;;;20.48
69415;BMP280;56608;43.530;-5.652;2023-06-10T05:12:41;100991.53;;;20.54
69415;BMP280;56608;43.530;-5.652;2023-06-10T05:13:42;100988.31;;;20.55
69415;BMP280;56608;43.530;-5.652;2023-06-10T05:14:44;101005.19;;;20.54
69415;BMP280;56608;43.530;-5.652;2023-06-10T05:15:44;101003.19;;;20.54
69415;BMP280;56608;43.530;-5.652;2023-06-10T05:16:46;101002.44;;;20.54
69415;BMP280;56608;43.530;-5.652;2023-06-10T05:17:47;100997.72;;;20.54
69415;BMP280;56608;43.530;-5.652;2023-06-10T05:18:47;100998.22;;;20.53
69415;BMP280;56608;43.530;-5.652;2023-06-10T05:19:47;101004.91;;;20.57
69415;BMP280;56608;43.530;-5.652;2023-06-10T05:20:48;101004.44;;;20.59
69415;BMP280;56608;43.530;-5.652;2023-06-10T05:21:49;101005.91;;;20.60
69415;BMP280;56608;43.530;-5.652;2023-06-10T05:22:49;100996.47;;;20.61
69415;BMP280;56608;43.530;-5.652;2023-06-10T05:23:49;101004.44;;;20.59
69415;BMP280;56608;43.530;-5.652;2023-06-10T05:24:50;101003.19;;;20.60
69415;BMP280;56608;43.530;-5.652;2023-06-10T05:25:51;101009.87;;;20.59
69415;BMP280;56608;43.530;-5.652;2023-06-10T05:26:51;101007.38;;;20.61
69415;BMP280;56608;43.530;-5.652;2023-06-10T05:27:51;101011.13;;;20.64
69415;BMP280;56608;43.530;-5.652;2023-06-10T05:28:52;101009.38;;;20.66
69415;BMP280;56608;43.530;-5.652;2023-06-10T05:29:52;101011.09;;;20.69
69415;BMP280;56608;43.530;-5.652;2023-06-10T05:30:53;101007.13;;;20.70
69415;BMP280;56608;43.530;-5.652;2023-06-10T05:31:53;101011.56;;;20.73
69415;BMP280;56608;43.530;-5.652;2023-06-10T05:32:56;101005.12;;;20.76
69415;BMP280;56608;43.530;-5.652;2023-06-10T05:33:57;101005.38;;;20.78
69415;BMP280;56608;43.530;-5.652;2023-06-10T05:34:58;101001.41;;;20.79
69415;BMP280;56608;43.530;-5.652;2023-06-10T05:36:00;101007.63;;;20.80
69415;BMP280;56608;43.530;-5.652;2023-06-10T05:37:00;101008.38;;;20.80
69415;BMP280;56608;43.530;-5.652;2023-06-10T05:38:00;101003.66;;;20.81
69415;BMP280;56608;43.530;-5.652;2023-06-10T05:39:01;101001.41;;;20.85
69415;BMP280;56608;43.530;-5.652;2023-06-10T05:40:01;101005.88;;;20.88
69415;BMP280;56608;43.530;-5.652;2023-06-10T05:41:01;101006.84;;;20.90
69415;BMP280;56608;43.530;-5.652;2023-06-10T05:42:02;101003.34;;;20.95
69415;BMP280;56608;43.530;-5.652;2023-06-10T05:43:02;101007.81;;;20.98
69415;BMP280;56608;43.530;-5.652;2023-06-10T05:44:03;101003.34;;;20.95
69415;BMP280;56608;43.530;-5.652;2023-06-10T05:45:03;100998.63;;;20.96